Time;durP1;ratioP1;P1;durP2;ratioP2;P2;SDS_P1;SDS_P2;PMS_P1;PMS_P2;Temp;Humidity;BMP_temperature;BMP_pressure;BME280_temperature;BME280_humidity;BME280_pressure;Samples;Min_cycle;Max_cycle;Signal;HPM_P1;HPM_P2
2023/04/25 00:00:17;;;;;;;17.20;12.20;;;12.50;99.90;;;;;;5014583;28;20228;-90
2023/04/25 00:02:44;;;;;;;18.03;12.47;;;12.50;99.90;;;;;;5017218;28;20192;-87
2023/04/25 00:05:11;;;;;;;17.87;12.30;;;12.40;99.90;;;;;;5017916;28;20236;-85
2023/04/25 00:07:38;;;;;;;19.90;13.40;;;12.40;99.90;;;;;;5016106;28;20291;-82
2023/04/25 00:10:07;;;;;;;16.70;12.07;;;12.50;99.90;;;;;;4984670;28;20259;-81
2023/04/25 00:12:35;;;;;;;19.13;13.50;;;12.50;99.90;;;;;;4993675;28;20196;-82
2023/04/25 00:15:03;;;;;;;17.63;12.70;;;12.40;99.90;;;;;;4993592;28;20665;-82
2023/04/25 00:17:29;;;;;;;19.50;13.37;;;12.50;99.90;;;;;;4994961;28;20177;-81
2023/04/25 00:19:58;;;;;;;19.00;12.20;;;12.50;99.90;;;;;;4994945;28;20248;-81
2023/04/25 00:22:24;;;;;;;20.47;12.90;;;12.60;99.90;;;;;;4993299;28;20248;-81
2023/04/25 00:24:53;;;;;;;17.60;12.50;;;12.50;99.90;;;;;;4993066;28;20725;-81
2023/04/25 00:27:20;;;;;;;19.23;13.30;;;12.60;99.90;;;;;;4993045;28;20207;-77
2023/04/25 00:29:46;;;;;;;19.23;12.97;;;12.60;99.90;;;;;;4993515;28;20193;-85
2023/04/25 00:32:13;;;;;;;18.13;12.33;;;12.60;99.90;;;;;;4993225;28;20207;-81
2023/04/25 00:34:40;;;;;;;17.63;12.30;;;12.60;99.90;;;;;;4993327;28;20209;-83
2023/04/25 00:37:07;;;;;;;21.57;12.77;;;12.60;99.90;;;;;;4992788;28;20730;-79
2023/04/25 00:39:34;;;;;;;18.13;11.93;;;12.50;99.90;;;;;;4993086;28;20217;-78
2023/04/25 00:42:01;;;;;;;19.83;13.23;;;12.50;99.90;;;;;;4993044;28;20193;-85
2023/04/25 00:44:30;;;;;;;18.77;12.00;;;12.50;99.90;;;;;;4994217;28;20197;-83
2023/04/25 00:46:57;;;;;;;17.00;11.83;;;12.50;99.90;;;;;;4994518;28;20197;-76
2023/04/25 00:49:24;;;;;;;19.43;11.80;;;12.50;99.90;;;;;;4992856;28;20232;-82
2023/04/25 00:51:51;;;;;;;21.00;12.87;;;12.50;99.90;;;;;;4993413;28;20197;-86
2023/04/25 00:54:18;;;;;;;19.20;12.60;;;12.50;99.90;;;;;;4994120;28;20587;-84
2023/04/25 00:56:45;;;;;;;18.83;12.80;;;12.50;99.90;;;;;;4992401;28;20225;-85
2023/04/25 00:59:13;;;;;;;19.00;12.43;;;12.50;99.90;;;;;;4992576;28;20657;-85
2023/04/25 01:01:41;;;;;;;18.30;12.60;;;12.50;99.90;;;;;;4994114;28;20193;-83
2023/04/25 01:04:08;;;;;;;18.57;12.93;;;12.40;99.90;;;;;;4997665;28;20212;-85
2023/04/25 01:06:35;;;;;;;19.00;13.23;;;12.30;99.90;;;;;;4995504;28;20291;-83
2023/04/25 01:09:03;;;;;;;19.20;13.43;;;12.30;99.90;;;;;;4996110;28;20608;-82
2023/04/25 01:11:30;;;;;;;17.90;12.80;;;12.30;99.90;;;;;;5001261;28;20197;-86
2023/04/25 01:13:57;;;;;;;18.87;12.77;;;12.20;99.90;;;;;;4992878;28;20212;-84
2023/04/25 01:16:24;;;;;;;20.57;13.30;;;12.20;99.90;;;;;;4992177;28;20208;-83
2023/04/25 01:18:51;;;;;;;19.30;13.17;;;12.20;99.90;;;;;;4992559;28;20197;-76
2023/04/25 01:21:18;;;;;;;20.37;13.30;;;12.20;99.90;;;;;;4992374;28;20369;-85
2023/04/25 01:23:46;;;;;;;17.70;13.53;;;12.20;99.90;;;;;;4992432;28;20185;-84
2023/04/25 01:26:13;;;;;;;18.90;13.30;;;12.10;99.90;;;;;;4991985;28;20209;-84
2023/04/25 01:28:41;;;;;;;19.57;13.53;;;12.10;99.90;;;;;;4992335;28;20193;-74
2023/04/25 01:31:09;;;;;;;21.23;13.90;;;12.10;99.90;;;;;;4992801;28;20200;-84
2023/04/25 01:33:36;;;;;;;22.13;14.37;;;11.90;99.90;;;;;;4993486;28;20280;-76
2023/04/25 01:36:03;;;;;;;18.43;12.97;;;11.90;99.90;;;;;;4992355;28;20232;-81
2023/04/25 01:38:30;;;;;;;20.27;13.30;;;11.90;99.90;;;;;;4993561;28;20291;-74
2023/04/25 01:40:57;;;;;;;20.10;13.63;;;11.90;99.90;;;;;;4994529;28;20212;-79
2023/04/25 01:43:26;;;;;;;18.63;13.50;;;11.80;99.90;;;;;;4992088;28;20244;-82
2023/04/25 01:45:53;;;;;;;19.90;13.93;;;11.90;99.90;;;;;;4992073;28;20197;-81
2023/04/25 01:48:20;;;;;;;19.03;13.80;;;11.90;99.90;;;;;;4993854;28;20203;-84
2023/04/25 01:50:47;;;;;;;19.17;13.00;;;11.90;99.90;;;;;;4991684;28;20657;-84
2023/04/25 01:53:14;;;;;;;20.80;13.67;;;11.90;99.90;;;;;;4991733;28;20189;-84
2023/04/25 01:55:41;;;;;;;21.73;13.37;;;11.90;99.90;;;;;;4993065;28;20204;-82
2023/04/25 01:58:12;;;;;;;20.13;13.20;;;12.00;99.90;;;;;;4991716;28;20229;-84
2023/04/25 02:00:40;;;;;;;19.70;12.60;;;12.00;99.90;;;;;;4991484;28;20339;-83
2023/04/25 02:03:08;;;;;;;21.43;12.83;;;12.10;99.90;;;;;;4992837;28;20211;-82
2023/04/25 02:05:37;;;;;;;19.53;11.87;;;12.20;99.90;;;;;;4992803;28;20200;-83
2023/04/25 02:08:07;;;;;;;18.13;12.57;;;12.10;99.90;;;;;;4990977;28;20595;-82
2023/04/25 02:10:35;;;;;;;17.33;12.27;;;12.00;99.90;;;;;;4991172;28;20209;-78
2023/04/25 02:13:02;;;;;;;18.03;12.43;;;12.00;99.90;;;;;;4991514;28;20193;-77
2023/04/25 02:15:29;;;;;;;17.13;12.07;;;12.00;99.90;;;;;;4991393;28;20564;-79
2023/04/25 02:17:57;;;;;;;19.33;12.20;;;11.90;99.90;;;;;;4992406;28;20184;-84
2023/04/25 02:20:24;;;;;;;16.70;11.90;;;11.90;99.90;;;;;;4990698;28;20247;-85
2023/04/25 02:22:52;;;;;;;16.23;11.63;;;11.90;99.90;;;;;;4991247;28;20291;-81
2023/04/25 02:25:20;;;;;;;17.67;11.47;;;11.90;99.90;;;;;;4990806;28;20208;-81
2023/04/25 02:27:48;;;;;;;17.03;11.50;;;11.90;99.90;;;;;;4991411;28;20203;-84
2023/04/25 02:30:15;;;;;;;17.87;11.00;;;11.70;99.90;;;;;;4991399;28;20204;-85
2023/04/25 02:32:42;;;;;;;20.23;12.63;;;11.70;99.90;;;;;;4991366;28;20213;-76
2023/04/25 02:35:09;;;;;;;18.93;11.67;;;11.60;99.90;;;;;;4990978;28;20239;-81
2023/04/25 02:37:38;;;;;;;18.37;11.13;;;11.60;99.90;;;;;;4990978;28;20196;-79
2023/04/25 02:40:06;;;;;;;20.63;11.93;;;11.60;99.90;;;;;;4991009;28;20587;-78
2023/04/25 02:42:33;;;;;;;16.07;10.90;;;11.60;99.90;;;;;;4992916;28;20204;-80
2023/04/25 02:45:00;;;;;;;16.23;10.93;;;11.50;99.90;;;;;;4991490;28;20200;-84
2023/04/25 02:47:27;;;;;;;17.37;11.13;;;11.50;99.90;;;;;;4990734;28;20715;-81
2023/04/25 02:49:54;;;;;;;17.87;11.07;;;11.40;99.90;;;;;;4992542;28;20193;-85
2023/04/25 02:52:21;;;;;;;19.17;11.37;;;11.40;99.90;;;;;;4994256;28;20196;-85
2023/04/25 02:54:48;;;;;;;16.60;10.73;;;11.40;99.90;;;;;;4996182;28;20276;-86
2023/04/25 02:57:15;;;;;;;16.40;10.83;;;11.50;99.90;;;;;;4995827;28;20240;-74
2023/04/25 02:59:41;;;;;;;18.27;10.73;;;11.40;99.90;;;;;;4996207;28;20196;-73
2023/04/25 03:02:09;;;;;;;17.03;11.00;;;11.30;99.90;;;;;;4996483;28;20231;-85
2023/04/25 03:04:36;;;;;;;16.10;11.07;;;11.40;99.90;;;;;;5001761;28;20675;-84
2023/04/25 03:07:04;;;;;;;17.23;11.00;;;11.40;99.90;;;;;;4997216;28;20211;-85
2023/04/25 03:09:31;;;;;;;15.93;11.60;;;11.40;99.90;;;;;;4996286;28;20279;-85
2023/04/25 03:11:57;;;;;;;16.93;11.57;;;11.40;99.90;;;;;;4994962;28;20204;-85
2023/04/25 03:14:24;;;;;;;18.47;11.97;;;11.30;99.90;;;;;;4996179;28;20519;-85
2023/04/25 03:16:51;;;;;;;15.23;11.07;;;11.20;99.90;;;;;;4994589;28;20336;-85
2023/04/25 03:19:18;;;;;;;15.70;10.87;;;11.20;99.90;;;;;;4994549;28;20197;-84
2023/04/25 03:21:45;;;;;;;18.67;11.70;;;11.30;99.90;;;;;;4994446;28;20653;-85
2023/04/25 03:24:12;;;;;;;17.23;10.93;;;11.40;99.90;;;;;;4995978;28;20197;-85
2023/04/25 03:26:39;;;;;;;18.10;11.23;;;11.40;99.90;;;;;;4995852;28;20255;-85
2023/04/25 03:29:06;;;;;;;18.13;11.00;;;11.40;99.90;;;;;;4995708;28;20189;-80
2023/04/25 03:31:33;;;;;;;14.67;9.73;;;11.50;99.90;;;;;;4993956;28;20575;-81
2023/04/25 03:34:00;;;;;;;15.37;10.20;;;11.60;99.90;;;;;;4995739;28;20220;-81
2023/04/25 03:36:26;;;;;;;14.07;9.60;;;11.60;99.90;;;;;;4996393;28;20212;-86
2023/04/25 03:38:53;;;;;;;15.10;9.67;;;11.50;99.90;;;;;;4996198;28;20205;-81
2023/04/25 03:41:21;;;;;;;15.13;9.63;;;11.60;99.90;;;;;;4994118;28;20224;-83
2023/04/25 03:43:48;;;;;;;14.23;9.53;;;11.60;99.90;;;;;;4977977;28;20185;-74
2023/04/25 03:46:16;;;;;;;14.40;10.23;;;11.60;99.90;;;;;;4995454;28;20197;-82
2023/04/25 03:48:43;;;;;;;15.43;9.40;;;11.50;99.90;;;;;;4994243;28;20189;-79
2023/04/25 03:51:09;;;;;;;15.60;9.57;;;11.60;99.90;;;;;;4995222;28;20197;-80
2023/04/25 03:53:37;;;;;;;14.40;8.77;;;11.50;99.90;;;;;;5008147;28;20686;-83
2023/04/25 03:56:04;;;;;;;13.37;9.23;;;11.50;99.90;;;;;;5004528;28;20205;-78
2023/04/25 03:58:31;;;;;;;12.93;8.70;;;11.50;99.90;;;;;;5003876;28;20197;-84
2023/04/25 04:00:58;;;;;;;12.53;8.57;;;11.40;99.90;;;;;;5004353;28;20221;-82
2023/04/25 04:03:25;;;;;;;12.03;8.30;;;11.50;99.90;;;;;;5005190;28;20255;-82
2023/04/25 04:05:53;;;;;;;11.67;7.67;;;11.50;99.90;;;;;;5005775;28;20193;-77
2023/04/25 04:08:20;;;;;;;13.23;7.87;;;11.50;99.90;;;;;;5002955;28;20197;-81
2023/04/25 04:10:47;;;;;;;12.17;7.30;;;11.50;99.90;;;;;;4993525;28;20661;-85
2023/04/25 04:13:14;;;;;;;11.83;7.93;;;11.50;99.90;;;;;;4995036;28;20714;-83
2023/04/25 04:15:41;;;;;;;12.57;7.73;;;11.50;99.90;;;;;;4994110;28;20193;-85
2023/04/25 04:18:08;;;;;;;10.27;7.80;;;11.50;99.90;;;;;;4994836;28;20204;-87
2023/04/25 04:20:35;;;;;;;10.40;7.50;;;11.50;99.90;;;;;;4994842;28;20224;-84
2023/04/25 04:23:01;;;;;;;12.73;7.83;;;11.40;99.90;;;;;;4994873;28;20193;-85
2023/04/25 04:25:29;;;;;;;12.30;7.70;;;11.40;99.90;;;;;;4995618;28;20638;-80
2023/04/25 04:27:57;;;;;;;11.37;7.53;;;11.50;99.90;;;;;;4995232;28;20278;-80
2023/04/25 04:30:25;;;;;;;12.37;8.10;;;11.60;99.90;;;;;;4995606;28;20557;-85
2023/04/25 04:32:52;;;;;;;11.37;7.60;;;11.60;99.90;;;;;;4994111;28;20669;-84
2023/04/25 04:35:19;;;;;;;11.83;7.80;;;11.70;99.90;;;;;;4977349;28;20221;-85
2023/04/25 04:37:46;;;;;;;11.30;7.53;;;11.80;99.90;;;;;;4994782;28;20197;-76
2023/04/25 04:40:15;;;;;;;12.90;8.27;;;11.80;99.90;;;;;;4993442;28;20196;-85
2023/04/25 04:42:43;;;;;;;11.73;7.87;;;11.90;99.90;;;;;;4993170;28;20205;-82
2023/04/25 04:45:10;;;;;;;11.53;8.27;;;11.70;99.90;;;;;;4993981;28;20200;-83
2023/04/25 04:47:39;;;;;;;15.07;8.17;;;11.60;99.90;;;;;;4992825;28;20647;-81
2023/04/25 04:50:09;;;;;;;29.07;11.33;;;11.60;99.90;;;;;;4994911;28;20197;-84
2023/04/25 04:52:37;;;;;;;11.53;8.50;;;11.60;99.90;;;;;;4993782;28;20213;-85
2023/04/25 04:55:07;;;;;;;12.43;8.60;;;11.70;99.90;;;;;;4977142;28;20209;-84
2023/04/25 04:57:35;;;;;;;12.03;8.47;;;11.60;99.90;;;;;;4994691;28;20713;-78
2023/04/25 05:00:04;;;;;;;10.87;7.80;;;11.70;99.90;;;;;;4993659;28;20204;-77
2023/04/25 05:02:31;;;;;;;11.23;8.03;;;11.70;99.90;;;;;;4993315;28;20217;-83
2023/04/25 05:04:58;;;;;;;12.17;8.67;;;11.70;99.90;;;;;;4993149;28;20200;-86
2023/04/25 05:07:25;;;;;;;11.17;8.53;;;11.60;99.90;;;;;;4994868;28;20193;-81
2023/04/25 05:09:52;;;;;;;12.30;9.07;;;11.50;99.90;;;;;;4994789;28;20212;-82
2023/04/25 05:12:19;;;;;;;11.87;8.80;;;11.60;99.90;;;;;;4992981;28;20223;-73
2023/04/25 05:14:46;;;;;;;11.40;8.77;;;11.60;99.90;;;;;;4994089;28;20589;-78
2023/04/25 05:17:13;;;;;;;13.70;9.10;;;11.60;99.90;;;;;;4993156;28;20216;-82
2023/04/25 05:19:40;;;;;;;13.30;9.63;;;11.60;99.90;;;;;;4992143;28;20200;-80
2023/04/25 05:22:07;;;;;;;12.10;9.43;;;11.50;99.90;;;;;;4991802;28;20213;-77
2023/04/25 05:24:33;;;;;;;15.77;10.50;;;11.40;99.90;;;;;;4991948;28;20678;-74
2023/04/25 05:27:00;;;;;;;14.97;10.40;;;11.40;99.90;;;;;;4991080;28;20247;-79
2023/04/25 05:29:27;;;;;;;14.13;9.87;;;11.20;99.90;;;;;;4991868;28;20270;-81
2023/04/25 05:31:54;;;;;;;13.40;10.07;;;11.00;99.90;;;;;;4991685;28;20200;-84
2023/04/25 05:34:21;;;;;;;14.93;10.50;;;10.90;99.90;;;;;;4992803;28;20196;-81
2023/04/25 05:36:48;;;;;;;16.03;10.83;;;10.90;99.90;;;;;;4991864;28;20296;-77
2023/04/25 05:39:17;;;;;;;14.90;10.57;;;10.90;99.90;;;;;;4991242;28;20203;-80
2023/04/25 05:41:44;;;;;;;14.60;10.37;;;11.00;99.90;;;;;;4991378;28;20636;-78
2023/04/25 05:44:11;;;;;;;15.07;10.10;;;10.90;99.90;;;;;;4991291;28;20630;-78
2023/04/25 05:46:37;;;;;;;13.87;9.73;;;10.80;99.90;;;;;;4992533;28;20205;-80
2023/04/25 05:49:06;;;;;;;14.83;10.03;;;10.80;99.90;;;;;;4991801;28;20205;-80
2023/04/25 05:51:32;;;;;;;14.10;10.13;;;10.80;99.90;;;;;;4991488;28;20204;-81
2023/04/25 05:53:59;;;;;;;13.43;9.97;;;10.70;99.90;;;;;;4991286;28;20193;-80
2023/04/25 05:56:26;;;;;;;14.07;10.33;;;10.80;99.90;;;;;;4991010;28;20247;-81
2023/04/25 05:58:53;;;;;;;13.93;9.73;;;10.90;99.90;;;;;;4992457;28;20268;-81
2023/04/25 06:01:21;;;;;;;14.63;10.10;;;10.90;99.90;;;;;;4991750;28;20227;-82
2023/04/25 06:03:48;;;;;;;15.10;11.07;;;11.00;99.90;;;;;;4993025;28;20196;-82
2023/04/25 06:06:15;;;;;;;14.77;11.10;;;11.10;99.90;;;;;;4992477;28;20196;-77
2023/04/25 06:08:43;;;;;;;13.17;9.50;;;11.00;99.90;;;;;;4992483;28;20251;-81
2023/04/25 06:11:09;;;;;;;13.80;9.67;;;10.90;99.90;;;;;;4992436;28;20200;-74
2023/04/25 06:13:36;;;;;;;12.90;9.47;;;10.90;99.90;;;;;;4992479;28;20223;-79
2023/04/25 06:16:04;;;;;;;14.93;9.90;;;10.90;99.90;;;;;;4991479;28;20251;-79
2023/04/25 06:18:37;;;;;;;15.40;9.93;;;10.90;99.90;;;;;;4991457;28;20201;-80
2023/04/25 06:21:05;;;;;;;14.83;10.20;;;11.00;99.90;;;;;;4996886;28;20263;-77
2023/04/25 06:23:32;;;;;;;18.63;12.77;;;11.00;99.90;;;;;;4997601;28;20201;-83
2023/04/25 06:25:59;;;;;;;16.97;10.17;;;10.90;99.90;;;;;;4994010;28;20197;-81
2023/04/25 06:28:26;;;;;;;16.03;10.43;;;10.90;99.90;;;;;;4993977;28;20600;-82
2023/04/25 06:30:53;;;;;;;16.30;11.30;;;10.80;99.90;;;;;;4991030;28;20659;-84
2023/04/25 06:33:26;;;;;;;14.10;10.70;;;10.70;99.90;;;;;;4990962;28;20201;-83
2023/04/25 06:35:54;;;;;;;16.13;11.10;;;10.70;99.90;;;;;;4991882;28;20204;-81
2023/04/25 06:38:21;;;;;;;17.83;12.40;;;10.60;99.90;;;;;;4991382;28;20208;-81
2023/04/25 06:40:48;;;;;;;18.30;12.30;;;10.80;99.90;;;;;;4990566;28;20501;-80
2023/04/25 06:43:15;;;;;;;18.23;13.03;;;10.60;99.90;;;;;;5001037;28;20239;-77
2023/04/25 06:45:42;;;;;;;17.13;11.17;;;10.70;99.90;;;;;;5006115;28;20196;-76
2023/04/25 06:48:10;;;;;;;15.60;11.33;;;10.50;99.90;;;;;;5009701;28;20200;-81
2023/04/25 06:50:38;;;;;;;15.97;10.70;;;10.50;99.90;;;;;;5009944;28;20215;-78
2023/04/25 06:53:05;;;;;;;12.50;9.43;;;10.50;99.90;;;;;;5010889;28;20568;-81
2023/04/25 06:55:32;;;;;;;14.03;10.07;;;10.50;99.90;;;;;;5004549;28;20259;-77
2023/04/25 06:57:58;;;;;;;15.13;10.07;;;10.50;99.90;;;;;;4991792;28;20225;-76
2023/04/25 07:00:26;;;;;;;13.67;9.87;;;10.60;99.90;;;;;;4992547;28;20212;-82
2023/04/25 07:02:52;;;;;;;14.57;9.70;;;10.60;99.90;;;;;;4991089;28;20235;-82
2023/04/25 07:05:20;;;;;;;14.23;9.77;;;10.50;99.90;;;;;;4991086;28;20267;-82
2023/04/25 07:07:47;;;;;;;14.70;10.23;;;10.50;99.90;;;;;;4990734;28;20669;-83
2023/04/25 07:10:13;;;;;;;18.50;10.97;;;10.50;99.90;;;;;;4990617;28;20193;-84
2023/04/25 07:12:40;;;;;;;14.70;10.90;;;10.60;99.90;;;;;;4990984;28;20205;-79
2023/04/25 07:15:09;;;;;;;14.63;10.73;;;10.50;99.90;;;;;;4991221;28;20197;-80
2023/04/25 07:17:36;;;;;;;15.73;10.07;;;10.50;99.90;;;;;;4992256;28;20216;-82
2023/04/25 07:20:05;;;;;;;13.53;8.97;;;10.40;99.90;;;;;;4974533;28;20244;-81
2023/04/25 07:22:37;;;;;;;13.97;9.50;;;10.40;99.90;;;;;;4991207;28;20213;-83
2023/04/25 07:25:04;;;;;;;13.17;9.50;;;10.60;99.90;;;;;;4990697;28;20193;-85
2023/04/25 07:27:31;;;;;;;13.20;9.43;;;10.80;99.90;;;;;;4991008;28;20207;-85
2023/04/25 07:29:58;;;;;;;12.03;8.97;;;10.70;99.90;;;;;;4992772;28;20212;-83
2023/04/25 07:32:26;;;;;;;10.80;8.27;;;10.80;99.90;;;;;;4991041;28;20215;-83
2023/04/25 07:34:54;;;;;;;11.20;7.73;;;10.70;99.90;;;;;;4991221;28;20256;-84
2023/04/25 07:37:21;;;;;;;11.00;8.60;;;10.60;99.90;;;;;;4990379;28;20201;-84
2023/04/25 07:39:48;;;;;;;11.80;8.53;;;10.50;99.90;;;;;;4977259;28;20295;-80
2023/04/25 07:42:15;;;;;;;14.60;9.05;;;10.60;99.90;;;;;;4993805;28;20448;-82
2023/04/25 07:44:42;;;;;;;11.17;8.27;;;10.80;99.90;;;;;;4994007;28;20212;-80
2023/04/25 07:47:10;;;;;;;12.10;7.77;;;10.80;99.90;;;;;;4993588;28;20211;-81
2023/04/25 07:49:37;;;;;;;10.37;8.00;;;10.70;99.90;;;;;;4993511;28;20193;-78
2023/04/25 07:52:05;;;;;;;11.10;8.10;;;10.60;99.90;;;;;;4993749;28;20255;-81
2023/04/25 07:54:32;;;;;;;14.87;8.50;;;10.60;99.90;;;;;;4993870;28;20313;-83
2023/04/25 07:57:00;;;;;;;10.90;7.93;;;10.60;99.90;;;;;;4994876;28;20675;-80
2023/04/25 07:59:27;;;;;;;12.17;8.40;;;10.60;99.90;;;;;;4993797;28;20661;-83
2023/04/25 08:01:57;;;;;;;9.57;8.07;;;10.80;99.90;;;;;;4995090;28;20578;-80
2023/04/25 08:04:25;;;;;;;10.00;7.80;;;11.00;99.90;;;;;;4993878;28;20209;-80
2023/04/25 08:06:53;;;;;;;10.30;8.07;;;11.10;99.90;;;;;;4993553;28;20200;-80
2023/04/25 08:09:23;;;;;;;9.47;7.00;;;11.10;99.90;;;;;;4993692;28;20646;-83
2023/04/25 08:11:50;;;;;;;10.03;7.30;;;10.90;99.90;;;;;;4977601;28;20196;-83
2023/04/25 08:14:17;;;;;;;11.87;7.63;;;11.00;99.90;;;;;;4993730;28;20208;-82
2023/04/25 08:16:44;;;;;;;9.73;7.33;;;11.00;99.90;;;;;;4993026;28;20211;-78
2023/04/25 08:19:11;;;;;;;8.90;7.10;;;10.80;99.90;;;;;;5000172;28;20202;-80
2023/04/25 08:21:38;;;;;;;8.43;6.80;;;10.90;99.90;;;;;;5005415;28;20224;-76
2023/04/25 08:24:05;;;;;;;8.88;7.40;;;10.80;99.90;;;;;;5012137;28;20428;-85
2023/04/25 08:26:32;;;;;;;8.50;6.13;;;10.80;99.90;;;;;;5012229;28;20207;-78
2023/04/25 08:29:00;;;;;;;8.50;5.70;;;10.70;99.90;;;;;;5012495;28;20864;-78
2023/04/25 08:31:27;;;;;;;7.57;5.30;;;10.50;99.90;;;;;;5012791;28;20211;-82
2023/04/25 08:33:54;;;;;;;7.78;5.32;;;10.50;99.90;;;;;;5012542;28;21072;-76
2023/04/25 08:36:22;;;;;;;6.77;5.23;;;10.50;99.90;;;;;;5014245;28;20216;-80
2023/04/25 08:39:04;;;;;;;7.60;5.37;;;10.50;99.90;;;;;;5020445;28;20199;-83
2023/04/25 08:41:31;;;;;;;7.30;5.93;;;10.50;99.90;;;;;;5012363;28;20440;-89
2023/04/25 08:44:00;;;;;;;7.67;5.63;;;10.50;99.90;;;;;;5013569;28;20200;-82
2023/04/25 08:46:30;;;;;;;7.23;5.70;;;10.50;99.90;;;;;;5013076;28;20204;-85
2023/04/25 08:49:01;;;;;;;9.73;5.70;;;10.50;99.90;;;;;;5015073;28;20197;-84
2023/04/25 08:51:32;;;;;;;7.67;5.70;;;10.50;99.90;;;;;;5013020;28;20262;-83
2023/04/25 08:54:13;;;;;;;9.23;5.87;;;10.50;99.90;;;;;;5013391;28;20204;-84
2023/04/25 08:56:47;;;;;;;8.70;6.00;;;10.30;99.90;;;;;;5012050;28;20228;-82
2023/04/25 08:59:14;;;;;;;8.57;6.00;;;10.20;99.90;;;;;;5012522;28;20242;-81
2023/04/25 09:01:41;;;;;;;7.87;6.13;;;10.20;99.90;;;;;;5012761;28;20228;-81
2023/04/25 09:04:09;;;;;;;8.90;6.67;;;10.20;99.90;;;;;;4996216;28;20200;-84
2023/04/25 09:06:36;;;;;;;7.93;6.80;;;10.30;99.90;;;;;;5014190;28;20556;-83
2023/04/25 09:09:08;;;;;;;9.00;7.03;;;10.20;99.90;;;;;;5013048;28;20192;-84
2023/04/25 09:11:36;;;;;;;8.57;6.57;;;10.30;99.90;;;;;;5014165;28;20184;-84
2023/04/25 09:14:20;;;;;;;8.83;6.73;;;10.10;99.90;;;;;;5012854;28;20215;-84
2023/04/25 09:16:56;;;;;;;8.23;6.17;;;10.10;99.90;;;;;;5014241;28;20192;-84
2023/04/25 09:19:35;;;;;;;8.57;6.97;;;10.10;99.90;;;;;;5014453;28;20616;-87
2023/04/25 09:22:11;;;;;;;8.03;6.40;;;10.10;99.90;;;;;;5010080;28;20220;-84
2023/04/25 09:24:44;;;;;;;7.50;6.00;;;10.10;99.90;;;;;;5012833;28;20611;-86
2023/04/25 09:27:18;;;;;;;8.00;6.20;;;10.20;99.90;;;;;;5014026;28;20202;-84
2023/04/25 09:29:46;;;;;;;7.60;5.90;;;10.30;99.90;;;;;;5014152;28;20554;-82
2023/04/25 09:32:21;;;;;;;7.87;6.20;;;10.30;99.90;;;;;;5012219;28;20226;-84
2023/04/25 09:34:50;;;;;;;9.80;6.80;;;10.20;99.90;;;;;;5013070;28;20755;-85
2023/04/25 09:37:28;;;;;;;8.77;6.83;;;10.10;99.90;;;;;;5013093;28;20192;-82
2023/04/25 09:39:58;;;;;;;8.10;6.53;;;10.20;99.90;;;;;;5013601;28;20200;-83
2023/04/25 09:43:15;;;;;;;7.87;6.23;;;10.20;99.90;;;;;;5014198;28;20239;-86
2023/04/25 09:45:47;;;;;;;8.73;6.60;;;10.20;99.90;;;;;;5013562;28;20192;-86
2023/04/25 09:48:18;;;;;;;8.93;6.23;;;10.10;99.90;;;;;;5012541;28;20192;-87
2023/04/25 09:51:03;;;;;;;10.07;6.13;;;10.20;99.90;;;;;;5013703;28;20589;-85
2023/04/25 09:53:31;;;;;;;7.80;6.57;;;10.10;99.90;;;;;;4997373;28;20201;-85
2023/04/25 09:56:00;;;;;;;7.00;5.90;;;10.20;99.90;;;;;;5011770;28;20203;-86
2023/04/25 09:58:30;;;;;;;9.03;6.47;;;10.20;99.90;;;;;;5012354;28;20286;-85
2023/04/25 10:01:04;;;;;;;8.97;7.00;;;10.10;99.90;;;;;;5011881;28;20540;-84
2023/04/25 10:03:33;;;;;;;8.27;6.80;;;9.90;99.90;;;;;;5012191;28;20241;-84
2023/04/25 10:06:08;;;;;;;9.43;6.97;;;10.00;99.90;;;;;;5025087;28;20642;-87
2023/04/25 10:08:37;;;;;;;8.63;7.10;;;9.90;99.90;;;;;;4996485;28;20200;-86
2023/04/25 10:11:06;;;;;;;11.23;7.90;;;9.90;99.90;;;;;;5012897;28;20215;-86
2023/04/25 10:13:35;;;;;;;9.13;7.30;;;9.90;99.90;;;;;;5013772;28;20195;-86
2023/04/25 10:19:47;;;;;;;9.97;7.50;;;10.30;99.90;;;;;;5037651;23;20233;-87
2023/04/25 10:22:25;;;;;;;9.40;7.47;;;10.20;99.90;;;;;;4980214;28;20231;-85
2023/04/25 10:24:53;;;;;;;13.47;7.90;;;10.10;99.90;;;;;;4995546;28;20198;-84
2023/04/25 10:27:20;;;;;;;12.83;7.90;;;10.10;99.90;;;;;;4995843;28;20200;-84
2023/04/25 10:30:04;;;;;;;11.67;7.97;;;10.10;99.90;;;;;;4995520;28;20773;-84
2023/04/25 10:32:35;;;;;;;10.50;7.97;;;10.00;99.90;;;;;;4995169;28;20652;-83
2023/04/25 10:35:18;;;;;;;9.40;7.67;;;10.10;99.90;;;;;;4995177;28;20618;-83
2023/04/25 10:38:08;;;;;;;11.50;7.57;;;10.20;99.90;;;;;;4995173;28;20195;-83
2023/04/25 10:40:36;;;;;;;11.50;7.87;;;10.30;99.90;;;;;;5015141;28;20547;-82
2023/04/25 10:43:31;;;;;;;11.33;7.80;;;10.30;99.90;;;;;;4995422;28;20231;-84
2023/04/25 10:46:01;;;;;;;10.40;7.87;;;10.40;99.90;;;;;;5014005;28;20196;-82
2023/04/25 10:48:31;;;;;;;11.40;8.60;;;10.30;99.90;;;;;;5012957;28;20226;-82
2023/04/25 10:51:15;;;;;;;11.23;8.73;;;10.40;99.90;;;;;;4995853;28;20200;-82
2023/04/25 10:53:56;;;;;;;12.17;8.87;;;10.50;99.90;;;;;;5012740;28;20207;-82
2023/04/25 10:56:26;;;;;;;11.10;8.83;;;10.60;99.90;;;;;;4995863;28;20286;-83
2023/04/25 10:59:11;;;;;;;11.20;9.10;;;10.60;99.90;;;;;;4995226;28;20204;-82
2023/04/25 11:01:43;;;;;;;12.17;9.50;;;10.70;99.90;;;;;;4997883;28;20271;-82
2023/04/25 11:04:20;;;;;;;11.17;8.70;;;10.70;99.90;;;;;;5012559;28;20263;-83
2023/04/25 11:07:02;;;;;;;12.60;9.17;;;10.70;99.90;;;;;;5012443;28;20286;-83
2023/04/25 11:09:39;;;;;;;11.27;9.17;;;10.60;99.90;;;;;;4995011;28;20196;-84
2023/04/25 11:12:11;;;;;;;10.03;8.10;;;10.70;99.90;;;;;;4995116;28;20657;-83
2023/04/25 11:14:41;;;;;;;9.17;7.57;;;10.70;99.90;;;;;;5015468;28;20249;-81
2023/04/25 11:17:08;;;;;;;12.70;8.00;;;10.70;99.90;;;;;;4998282;28;20208;-82
2023/04/25 11:19:35;;;;;;;11.13;8.73;;;10.50;99.90;;;;;;4981411;28;20625;-84
2023/04/25 11:22:10;;;;;;;9.30;7.70;;;10.70;99.90;;;;;;5016979;28;20192;-83
2023/04/25 11:27:26;;;;;;;10.67;7.63;;;10.50;99.90;;;;;;5094753;23;20240;-87
2023/04/25 11:29:53;;;;;;;11.73;8.00;;;10.60;99.90;;;;;;4996660;28;20699;-85
2023/04/25 11:32:20;;;;;;;12.67;8.17;;;10.70;99.90;;;;;;4978871;28;20279;-86
2023/04/25 11:34:48;;;;;;;10.87;8.13;;;10.70;99.90;;;;;;4985423;28;20718;-85
2023/04/25 11:37:15;;;;;;;8.93;7.37;;;10.70;99.90;;;;;;4978051;28;20204;-84
2023/04/25 11:39:45;;;;;;;10.23;7.27;;;10.60;99.90;;;;;;4978200;28;20575;-86
2023/04/25 11:42:15;;;;;;;12.77;7.50;;;10.60;99.90;;;;;;4977471;28;20299;-82
2023/04/25 11:44:42;;;;;;;9.73;7.53;;;10.60;99.90;;;;;;4979208;28;20682;-86
2023/04/25 11:47:09;;;;;;;11.13;7.70;;;10.80;99.90;;;;;;4995696;28;20200;-86
2023/04/25 11:49:36;;;;;;;10.23;7.57;;;10.80;99.90;;;;;;4995483;28;20591;-86
2023/04/25 11:52:06;;;;;;;11.57;7.77;;;10.90;99.90;;;;;;4979568;28;20316;-86
2023/04/25 11:54:37;;;;;;;9.60;7.10;;;11.10;99.90;;;;;;4977533;28;20196;-82
2023/04/25 11:57:04;;;;;;;12.17;7.63;;;11.10;99.90;;;;;;4979271;28;20224;-87
2023/04/25 11:59:32;;;;;;;11.00;7.90;;;11.10;99.90;;;;;;4980068;28;20293;-84
2023/04/25 12:02:01;;;;;;;8.27;6.83;;;11.20;99.90;;;;;;4977961;28;20724;-85
2023/04/25 12:04:33;;;;;;;10.13;6.87;;;11.20;99.90;;;;;;4977808;28;20229;-83
2023/04/25 12:07:01;;;;;;;9.30;7.30;;;11.00;99.90;;;;;;4977349;28;20235;-84
2023/04/25 12:09:33;;;;;;;9.40;7.63;;;10.90;99.90;;;;;;5007199;23;20193;-85
2023/04/25 12:12:05;;;;;;;8.43;6.93;;;10.90;99.90;;;;;;4993361;28;20701;-84
2023/04/25 12:14:34;;;;;;;8.20;6.57;;;10.90;99.90;;;;;;4995865;28;20244;-84
2023/04/25 12:17:03;;;;;;;10.27;7.07;;;10.80;99.90;;;;;;4993740;28;20228;-86
2023/04/25 12:19:43;;;;;;;8.87;7.10;;;11.00;99.90;;;;;;4993792;28;20211;-83
2023/04/25 12:22:21;;;;;;;9.10;7.20;;;11.20;99.90;;;;;;4993342;28;20300;-84
2023/04/25 12:24:48;;;;;;;7.97;6.67;;;11.20;99.90;;;;;;4993331;28;20242;-86
2023/04/25 12:27:18;;;;;;;7.33;6.50;;;11.30;99.90;;;;;;4994615;28;20650;-84
2023/04/25 12:29:54;;;;;;;10.20;6.20;;;11.40;99.90;;;;;;4994662;28;20664;-83
2023/04/25 12:32:22;;;;;;;6.30;5.60;;;11.10;99.90;;;;;;4994461;28;20228;-83
2023/04/25 12:34:49;;;;;;;7.13;5.13;;;11.00;99.90;;;;;;4996300;28;20208;-85
2023/04/25 12:37:16;;;;;;;7.43;5.20;;;11.00;99.90;;;;;;5014159;28;20230;-85
2023/04/25 12:39:43;;;;;;;7.37;5.50;;;10.90;99.90;;;;;;4996842;28;20299;-86
2023/04/25 12:42:13;;;;;;;7.63;5.37;;;10.90;99.90;;;;;;5013705;28;20219;-80
2023/04/25 12:44:40;;;;;;;6.70;5.43;;;11.00;99.90;;;;;;4995426;28;20719;-79
2023/04/25 12:47:08;;;;;;;7.13;5.37;;;11.00;99.90;;;;;;4995554;28;20191;-79
2023/04/25 12:49:35;;;;;;;7.53;5.97;;;10.90;99.90;;;;;;4995919;28;20199;-79